PWSweather.com
Personal Weather Stations
Station Observations
UWIDEPER1
Brown County, Depere, WI 54115

Brown CountyDepere, WI 54115

Lat: 44.44, Lon: -88.05

Elevation: 610

Station Type: Acurite 5in1

Latest ConditionsUpdated 4:00:01 PM CST Saturday, Feb 23, 2019
Currently Today's Max Today's Min Today's Average
Temperature 36.1°F2.3°C 37.6°F3.1°C 25.2°F-3.8°C 31.4°F-0.3°C
Dew Point 31.5°F-0.3°C 33.1°F0.6°C 22.1°F-5.5°C 28.2°F-2.1°C
Winds 2.3 mph E3.7 kmh E 9.2 mph -14.8 kmh - - 3.1 mph 5.0 kmh
Wind Gusts 2.3 mph3.7 kmh 11.5 mph18.5 kmh - -
Humidity 83% 91% 81% 88%
Pressure 29.85 in1010.8 mb 30.32 in1026.8 mb 29.84 in1010.5 mb -
Precipitation - 0.09 in2.3 mm - -
Hour Temp Dew Point Humidity Winds Wind Gusts Pressure Precip Precip Rate Daily Precip Total
04:00 PM 36.1°F2.3°C 31.5°F-0.3°C 83% 2.3 mph E3.7 kmh E 2.3 mph3.7 kmh 29.85 in1010.8 mb - 0.01 in0.3 mm 0.09 in2.3 mm
03:55 PM 36.1°F2.3°C 30.9°F-0.6°C 81% 3.5 mph E5.6 kmh E 2.3 mph3.7 kmh 29.84 in1010.5 mb - 0.01 in0.3 mm 0.09 in2.3 mm
03:50 PM 36.1°F2.3°C 30.9°F-0.6°C 81% 3.5 mph E5.6 kmh E 4.6 mph7.4 kmh 29.85 in1010.8 mb - 0.01 in0.3 mm 0.09 in2.3 mm
03:45 PM 36.6°F2.6°C 31.3°F-0.4°C 81% 4.6 mph ENE7.4 kmh ENE 6.9 mph11.1 kmh 29.84 in1010.5 mb - 0.01 in0.3 mm 0.09 in2.3 mm
03:40 PM 36.7°F2.6°C 32.0°F0.0°C 83% 3.5 mph E5.6 kmh E 3.5 mph5.6 kmh 29.85 in1010.8 mb - 0.01 in0.3 mm 0.09 in2.3 mm
03:35 PM 36.9°F2.7°C 32.2°F0.1°C 83% 2.3 mph N3.7 kmh N 2.3 mph3.7 kmh 29.85 in1010.8 mb - 0.01 in0.3 mm 0.09 in2.3 mm
03:30 PM 36.5°F2.5°C 31.8°F-0.1°C 83% 2.3 mph NE3.7 kmh NE 3.5 mph5.6 kmh 29.86 in1011.2 mb - 0.01 in0.3 mm 0.09 in2.3 mm
03:25 PM 37.0°F2.8°C 32.4°F0.2°C 83% 3.5 mph NNE5.6 kmh NNE 3.5 mph5.6 kmh 29.87 in1011.5 mb - 0.02 in0.5 mm 0.09 in2.3 mm
03:20 PM 36.9°F2.7°C 32.2°F0.1°C 83% 2.3 mph ESE3.7 kmh ESE 5.8 mph9.3 kmh 29.87 in1011.5 mb - 0.02 in0.5 mm 0.09 in2.3 mm
03:15 PM 36.1°F2.3°C 32.1°F0.1°C 85% 2.3 mph ESE3.7 kmh ESE 4.6 mph7.4 kmh 29.87 in1011.5 mb - 0.02 in0.5 mm 0.09 in2.3 mm
03:10 PM 36.1°F2.3°C 31.5°F-0.3°C 83% 2.3 mph ESE3.7 kmh ESE 2.3 mph3.7 kmh 29.87 in1011.5 mb - 0.02 in0.5 mm 0.09 in2.3 mm
03:00 PM 36.1°F2.3°C 31.5°F-0.3°C 83% 3.5 mph ESE5.6 kmh ESE 3.5 mph5.6 kmh 29.89 in1012.2 mb - 0.02 in0.5 mm 0.08 in2.0 mm
02:55 PM 36.1°F2.3°C 32.1°F0.1°C 85% 2.3 mph ESE3.7 kmh ESE 2.3 mph3.7 kmh 29.88 in1011.9 mb - 0.02 in0.5 mm 0.08 in2.0 mm
02:50 PM 36.1°F2.3°C 32.1°F0.1°C 85% 2.3 mph ESE3.7 kmh ESE 3.5 mph5.6 kmh 29.88 in1011.9 mb - 0.02 in0.5 mm 0.08 in2.0 mm
02:45 PM 36.1°F2.3°C 32.1°F0.1°C 85% 3.5 mph ESE5.6 kmh ESE 2.3 mph3.7 kmh 29.88 in1011.9 mb - 0.02 in0.5 mm 0.08 in2.0 mm
02:40 PM 36.1°F2.3°C 32.0°F0.0°C 85% 3.5 mph NE5.6 kmh NE 3.5 mph5.6 kmh 29.88 in1011.9 mb - 0.03 in0.8 mm 0.08 in2.0 mm
02:35 PM 36.1°F2.3°C 32.1°F0.1°C 85% 3.5 mph E5.6 kmh E 4.6 mph7.4 kmh 29.87 in1011.5 mb - 0.04 in1.0 mm 0.08 in2.0 mm
02:30 PM 36.1°F2.3°C 32.1°F0.1°C 85% 1.2 mph E1.9 kmh E 2.3 mph3.7 kmh 29.89 in1012.2 mb - 0.04 in1.0 mm 0.08 in2.0 mm
02:25 PM 36.1°F2.3°C 32.1°F0.1°C 85% 4.6 mph NE7.4 kmh NE 4.6 mph7.4 kmh 29.89 in1012.2 mb - 0.03 in0.8 mm 0.07 in1.8 mm
02:20 PM 36.5°F2.5°C 31.8°F-0.1°C 83% 3.5 mph ESE5.6 kmh ESE 5.8 mph9.3 kmh 29.90 in1012.5 mb - 0.03 in0.8 mm 0.07 in1.8 mm
02:15 PM 36.7°F2.6°C 32.0°F0.0°C 83% 3.5 mph ESE5.6 kmh ESE 3.5 mph5.6 kmh 29.90 in1012.5 mb - 0.04 in1.0 mm 0.07 in1.8 mm
02:10 PM 36.9°F2.7°C 32.2°F0.1°C 83% 3.5 mph NE5.6 kmh NE 3.5 mph5.6 kmh 29.91 in1012.9 mb - 0.05 in1.3 mm 0.07 in1.8 mm
02:00 PM 36.5°F2.5°C 31.8°F-0.1°C 83% 2.3 mph E3.7 kmh E 3.5 mph5.6 kmh 29.91 in1012.9 mb - 0.05 in1.3 mm 0.07 in1.8 mm
01:55 PM 37.2°F2.9°C 32.5°F0.3°C 83% 2.3 mph ENE3.7 kmh ENE 2.3 mph3.7 kmh 29.92 in1013.2 mb - 0.04 in1.0 mm 0.06 in1.5 mm
01:50 PM 37.0°F2.8°C 32.3°F0.2°C 83% 5.8 mph E9.3 kmh E 3.5 mph5.6 kmh 29.93 in1013.5 mb - 0.04 in1.0 mm 0.06 in1.5 mm
01:45 PM 37.6°F3.1°C 32.9°F0.5°C 83% 5.8 mph ENE9.3 kmh ENE 6.9 mph11.1 kmh 29.93 in1013.5 mb - 0.05 in1.3 mm 0.06 in1.5 mm
01:40 PM 37.4°F3.0°C 32.7°F0.4°C 83% 3.5 mph E5.6 kmh E 3.5 mph5.6 kmh 29.93 in1013.5 mb - 0.04 in1.0 mm 0.05 in1.3 mm
01:35 PM 37.4°F3.0°C 32.7°F0.4°C 83% 3.5 mph ENE5.6 kmh ENE 3.5 mph5.6 kmh 29.92 in1013.2 mb - 0.04 in1.0 mm 0.05 in1.3 mm
01:30 PM 37.4°F3.0°C 32.7°F0.4°C 83% 3.5 mph ENE5.6 kmh ENE 3.5 mph5.6 kmh 29.93 in1013.5 mb - 0.03 in0.8 mm 0.04 in1.0 mm
01:25 PM 37.6°F3.1°C 32.9°F0.5°C 83% 4.6 mph E7.4 kmh E 2.3 mph3.7 kmh 29.92 in1013.2 mb - 0.03 in0.8 mm 0.04 in1.0 mm
01:20 PM 37.6°F3.1°C 32.9°F0.5°C 83% 4.6 mph E7.4 kmh E 4.6 mph7.4 kmh 29.93 in1013.5 mb - 0.03 in0.8 mm 0.04 in1.0 mm
01:15 PM 37.2°F2.9°C 33.1°F0.6°C 85% 2.3 mph ESE3.7 kmh ESE 6.9 mph11.1 kmh 29.95 in1014.2 mb - 0.03 in0.8 mm 0.04 in1.0 mm
01:10 PM 36.1°F2.3°C 32.4°F0.2°C 86% 2.3 mph SSE3.7 kmh SSE 2.3 mph3.7 kmh 29.95 in1014.2 mb - 0.02 in0.5 mm 0.03 in0.8 mm
01:00 PM 35.4°F1.9°C 32.2°F0.1°C 88% 3.5 mph SE5.6 kmh SE 4.6 mph7.4 kmh 29.93 in1013.5 mb - 0.02 in0.5 mm 0.02 in0.5 mm
12:55 PM 36.5°F2.5°C 32.7°F0.4°C 86% 4.6 mph E7.4 kmh E 4.6 mph7.4 kmh 29.93 in1013.5 mb - 0.02 in0.5 mm 0.02 in0.5 mm
12:50 PM 36.5°F2.5°C 33.0°F0.6°C 87% 2.3 mph ENE3.7 kmh ENE 3.5 mph5.6 kmh 29.95 in1014.2 mb - 0.02 in0.5 mm 0.02 in0.5 mm
12:45 PM 35.1°F1.7°C 31.9°F-0.1°C 88% 3.5 mph ENE5.6 kmh ENE 3.5 mph5.6 kmh 29.95 in1014.2 mb - 0.01 in0.3 mm 0.01 in0.3 mm
12:40 PM 34.5°F1.4°C 31.3°F-0.4°C 88% 3.5 mph NNE5.6 kmh NNE 5.8 mph9.3 kmh 29.96 in1014.6 mb - 0.01 in0.3 mm 0.01 in0.3 mm
12:35 PM 34.2°F1.2°C 30.4°F-0.9°C 86% 3.5 mph NNE5.6 kmh NNE 3.5 mph5.6 kmh 29.98 in1015.2 mb - 0.01 in0.3 mm 0.01 in0.3 mm
12:30 PM 34.6°F1.4°C 30.9°F-0.6°C 86% 2.3 mph W3.7 kmh W 3.5 mph5.6 kmh 29.98 in1015.2 mb - 0.01 in0.3 mm 0.01 in0.3 mm
12:25 PM 34.0°F1.1°C 30.8°F-0.7°C 88% 2.3 mph NE3.7 kmh NE 2.3 mph3.7 kmh 29.98 in1015.2 mb - 0.01 in0.3 mm 0.01 in0.3 mm
12:20 PM 34.0°F1.1°C 30.8°F-0.7°C 88% 2.3 mph NE3.7 kmh NE 3.5 mph5.6 kmh 29.98 in1015.2 mb - 0.01 in0.3 mm 0.01 in0.3 mm
12:15 PM 34.2°F1.2°C 31.0°F-0.6°C 88% 1.2 mph NNE1.9 kmh NNE 1.2 mph1.9 kmh 29.99 in1015.6 mb - 0.01 in0.3 mm 0.01 in0.3 mm
12:10 PM 34.9°F1.6°C 31.7°F-0.2°C 88% 1.2 mph E1.9 kmh E 1.2 mph1.9 kmh 29.98 in1015.2 mb - 0.01 in0.3 mm 0.01 in0.3 mm
12:00 PM 34.0°F1.1°C 30.3°F-0.9°C 86% 4.6 mph W7.4 kmh W 4.6 mph7.4 kmh 29.99 in1015.6 mb - 0.00 in0.0 mm 0.00 in0.0 mm
11:55 AM 34.7°F1.5°C 30.9°F-0.6°C 86% 3.5 mph NW5.6 kmh NW 3.5 mph5.6 kmh 29.98 in1015.2 mb - 0.00 in0.0 mm 0.00 in0.0 mm
11:50 AM 34.5°F1.4°C 30.8°F-0.7°C 86% 4.6 mph W7.4 kmh W 5.8 mph9.3 kmh 29.96 in1014.6 mb - 0.00 in0.0 mm 0.00 in0.0 mm
11:45 AM 34.5°F1.4°C 31.3°F-0.4°C 88% 2.3 mph E3.7 kmh E 6.9 mph11.1 kmh 29.95 in1014.2 mb - 0.00 in0.0 mm 0.00 in0.0 mm
11:40 AM 33.8°F1.0°C 30.6°F-0.8°C 88% 3.5 mph W5.6 kmh W 3.5 mph5.6 kmh 29.98 in1015.2 mb - 0.00 in0.0 mm 0.00 in0.0 mm
11:35 AM 33.4°F0.8°C 30.3°F-0.9°C 88% 4.6 mph WNW7.4 kmh WNW 4.6 mph7.4 kmh 29.98 in1015.2 mb - 0.00 in0.0 mm 0.00 in0.0 mm
11:30 AM 33.1°F0.6°C 29.9°F-1.2°C 88% 4.6 mph NE7.4 kmh NE 5.8 mph9.3 kmh 29.96 in1014.6 mb - 0.00 in0.0 mm 0.00 in0.0 mm
11:25 AM 32.8°F0.4°C 29.7°F-1.3°C 88% 4.6 mph ENE7.4 kmh ENE 5.8 mph9.3 kmh 29.94 in1013.9 mb - 0.00 in0.0 mm 0.00 in0.0 mm
11:20 AM 32.4°F0.2°C 29.8°F-1.2°C 90% 9.2 mph SE14.8 kmh SE 11.5 mph18.5 kmh 29.93 in1013.5 mb - 0.00 in0.0 mm 0.00 in0.0 mm
11:15 AM 32.4°F0.2°C 29.8°F-1.2°C 90% 9.2 mph E14.8 kmh E 9.2 mph14.8 kmh 29.93 in1013.5 mb - 0.00 in0.0 mm 0.00 in0.0 mm
11:10 AM 32.5°F0.3°C 29.9°F-1.2°C 90% 5.8 mph ESE9.3 kmh ESE 10.4 mph16.7 kmh 29.97 in1014.9 mb - 0.00 in0.0 mm 0.00 in0.0 mm
11:00 AM 32.5°F0.3°C 29.9°F-1.2°C 90% 5.8 mph ESE9.3 kmh ESE 6.9 mph11.1 kmh 30.02 in1016.6 mb - 0.00 in0.0 mm 0.00 in0.0 mm
10:55 AM 32.5°F0.3°C 29.9°F-1.2°C 90% 5.8 mph E9.3 kmh E 11.5 mph18.5 kmh 30.03 in1016.9 mb - 0.00 in0.0 mm 0.00 in0.0 mm
10:50 AM 32.5°F0.3°C 29.9°F-1.2°C 90% 4.6 mph E7.4 kmh E 3.5 mph5.6 kmh 30.04 in1017.3 mb - 0.00 in0.0 mm 0.00 in0.0 mm
10:45 AM 32.5°F0.3°C 29.9°F-1.2°C 90% 4.6 mph ESE7.4 kmh ESE 5.8 mph9.3 kmh 30.05 in1017.6 mb - 0.00 in0.0 mm 0.00 in0.0 mm
10:40 AM 31.8°F-0.1°C 29.2°F-1.6°C 90% 5.8 mph E9.3 kmh E 3.5 mph5.6 kmh 30.05 in1017.6 mb - 0.00 in0.0 mm 0.00 in0.0 mm
10:35 AM 32.2°F0.1°C 29.6°F-1.3°C 90% 4.6 mph ESE7.4 kmh ESE 6.9 mph11.1 kmh 30.05 in1017.6 mb - 0.00 in0.0 mm 0.00 in0.0 mm
10:30 AM 31.8°F-0.1°C 29.2°F-1.6°C 90% 5.8 mph ESE9.3 kmh ESE 4.6 mph7.4 kmh 30.05 in1017.6 mb - 0.00 in0.0 mm 0.00 in0.0 mm
10:25 AM 31.8°F-0.1°C 29.2°F-1.6°C 90% 4.6 mph E7.4 kmh E 4.6 mph7.4 kmh 30.06 in1017.9 mb - 0.00 in0.0 mm 0.00 in0.0 mm
10:20 AM 31.8°F-0.1°C 29.4°F-1.4°C 91% 5.8 mph E9.3 kmh E 9.2 mph14.8 kmh 30.06 in1017.9 mb - 0.00 in0.0 mm 0.00 in0.0 mm
10:15 AM 31.8°F-0.1°C 29.5°F-1.4°C 91% 3.5 mph ESE5.6 kmh ESE 3.5 mph5.6 kmh 30.07 in1018.3 mb - 0.00 in0.0 mm 0.00 in0.0 mm
10:10 AM 31.6°F-0.2°C 29.3°F-1.5°C 91% 3.5 mph ENE5.6 kmh ENE 4.6 mph7.4 kmh 30.07 in1018.3 mb - 0.00 in0.0 mm 0.00 in0.0 mm
10:00 AM 31.6°F-0.2°C 29.3°F-1.5°C 91% 3.5 mph E5.6 kmh E 4.6 mph7.4 kmh 30.09 in1019.0 mb - 0.00 in0.0 mm 0.00 in0.0 mm
09:55 AM 31.5°F-0.3°C 29.1°F-1.6°C 91% 2.3 mph SE3.7 kmh SE 5.8 mph9.3 kmh 30.09 in1019.0 mb - 0.00 in0.0 mm 0.00 in0.0 mm
09:50 AM 31.1°F-0.5°C 28.8°F-1.8°C 91% 3.5 mph NNE5.6 kmh NNE 4.6 mph7.4 kmh 30.08 in1018.6 mb - 0.00 in0.0 mm 0.00 in0.0 mm
09:45 AM 30.7°F-0.7°C 28.4°F-2.0°C 91% 5.8 mph NNE9.3 kmh NNE 6.9 mph11.1 kmh 30.08 in1018.6 mb - 0.00 in0.0 mm 0.00 in0.0 mm
09:40 AM 31.1°F-0.5°C 28.8°F-1.8°C 91% 6.9 mph ESE11.1 kmh ESE 6.9 mph11.1 kmh 30.07 in1018.3 mb - 0.00 in0.0 mm 0.00 in0.0 mm
09:35 AM 31.5°F-0.3°C 29.1°F-1.6°C 91% 4.6 mph ESE7.4 kmh ESE 5.8 mph9.3 kmh 30.09 in1019.0 mb - 0.00 in0.0 mm 0.00 in0.0 mm
09:30 AM 31.5°F-0.3°C 29.1°F-1.6°C 91% 3.5 mph ESE5.6 kmh ESE 3.5 mph5.6 kmh 30.11 in1019.6 mb - 0.00 in0.0 mm 0.00 in0.0 mm
09:25 AM 31.6°F-0.2°C 29.0°F-1.7°C 90% 3.5 mph E5.6 kmh E 5.8 mph9.3 kmh 30.12 in1020.0 mb - 0.00 in0.0 mm 0.00 in0.0 mm
09:20 AM 31.6°F-0.2°C 29.0°F-1.7°C 90% 3.5 mph ENE5.6 kmh ENE 3.5 mph5.6 kmh 30.14 in1020.7 mb - 0.00 in0.0 mm 0.00 in0.0 mm
09:15 AM 32.2°F0.1°C 29.0°F-1.7°C 88% 4.6 mph NNE7.4 kmh NNE 8.1 mph13.0 kmh 30.14 in1020.7 mb - 0.00 in0.0 mm 0.00 in0.0 mm
09:10 AM 32.9°F0.5°C 29.2°F-1.6°C 86% 4.6 mph SE7.4 kmh SE 5.8 mph9.3 kmh 30.14 in1020.7 mb - 0.00 in0.0 mm 0.00 in0.0 mm
09:00 AM 33.3°F0.7°C 29.5°F-1.4°C 86% 4.6 mph ESE7.4 kmh ESE 3.5 mph5.6 kmh 30.15 in1021.0 mb - 0.00 in0.0 mm 0.00 in0.0 mm
08:55 AM 33.3°F0.7°C 29.5°F-1.4°C 86% 4.6 mph E7.4 kmh E 6.9 mph11.1 kmh 30.15 in1021.0 mb - 0.00 in0.0 mm 0.00 in0.0 mm
08:50 AM 33.3°F0.7°C 29.5°F-1.4°C 86% 3.5 mph ESE5.6 kmh ESE 3.5 mph5.6 kmh 30.15 in1021.0 mb - 0.00 in0.0 mm 0.00 in0.0 mm
08:45 AM 33.1°F0.6°C 29.3°F-1.5°C 86% 3.5 mph SE5.6 kmh SE 3.5 mph5.6 kmh 30.15 in1021.0 mb - 0.00 in0.0 mm 0.00 in0.0 mm
08:40 AM 33.1°F0.6°C 29.3°F-1.5°C 86% 4.6 mph ESE7.4 kmh ESE 4.6 mph7.4 kmh 30.15 in1021.0 mb - 0.00 in0.0 mm 0.00 in0.0 mm
08:35 AM 32.9°F0.5°C 29.2°F-1.6°C 86% 4.6 mph E7.4 kmh E 8.1 mph13.0 kmh 30.15 in1021.0 mb - 0.00 in0.0 mm 0.00 in0.0 mm
08:30 AM 32.5°F0.3°C 28.8°F-1.8°C 86% 4.6 mph ESE7.4 kmh ESE 5.8 mph9.3 kmh 30.15 in1021.0 mb - 0.00 in0.0 mm 0.00 in0.0 mm
08:25 AM 32.5°F0.3°C 28.8°F-1.8°C 86% 5.8 mph ENE9.3 kmh ENE 9.2 mph14.8 kmh 30.13 in1020.3 mb - 0.00 in0.0 mm 0.00 in0.0 mm
08:20 AM 32.5°F0.3°C 28.8°F-1.8°C 86% 4.6 mph E7.4 kmh E 4.6 mph7.4 kmh 30.14 in1020.7 mb - 0.00 in0.0 mm 0.00 in0.0 mm
08:15 AM 32.5°F0.3°C 28.8°F-1.8°C 86% 3.5 mph ENE5.6 kmh ENE 5.8 mph9.3 kmh 30.15 in1021.0 mb - 0.00 in0.0 mm 0.00 in0.0 mm
08:10 AM 32.5°F0.3°C 28.8°F-1.8°C 86% 4.6 mph E7.4 kmh E 5.8 mph9.3 kmh 30.15 in1021.0 mb - 0.00 in0.0 mm 0.00 in0.0 mm
08:00 AM 32.2°F0.1°C 29.0°F-1.7°C 88% 2.3 mph E3.7 kmh E 3.5 mph5.6 kmh 30.16 in1021.3 mb - 0.00 in0.0 mm 0.00 in0.0 mm
07:55 AM 32.2°F0.1°C 29.0°F-1.7°C 88% 2.3 mph ENE3.7 kmh ENE 3.5 mph5.6 kmh 30.17 in1021.7 mb - 0.00 in0.0 mm 0.00 in0.0 mm
07:50 AM 31.8°F-0.1°C 28.7°F-1.8°C 88% 2.3 mph E3.7 kmh E 1.2 mph1.9 kmh 30.17 in1021.7 mb - 0.00 in0.0 mm 0.00 in0.0 mm
07:45 AM 31.8°F-0.1°C 28.7°F-1.8°C 88% 2.3 mph ENE3.7 kmh ENE 2.3 mph3.7 kmh 30.17 in1021.7 mb - 0.00 in0.0 mm 0.00 in0.0 mm
07:40 AM 31.6°F-0.2°C 28.5°F-1.9°C 88% 2.3 mph NE3.7 kmh NE 3.5 mph5.6 kmh 30.17 in1021.7 mb - 0.00 in0.0 mm 0.00 in0.0 mm
07:35 AM 31.6°F-0.2°C 28.5°F-1.9°C 88% 2.3 mph E3.7 kmh E 1.2 mph1.9 kmh 30.17 in1021.7 mb - 0.00 in0.0 mm 0.00 in0.0 mm
07:30 AM 31.5°F-0.3°C 28.3°F-2.1°C 88% 2.3 mph E3.7 kmh E 3.5 mph5.6 kmh 30.18 in1022.0 mb - 0.00 in0.0 mm 0.00 in0.0 mm
07:25 AM 31.5°F-0.3°C 28.3°F-2.1°C 88% 2.3 mph E3.7 kmh E 3.5 mph5.6 kmh 30.17 in1021.7 mb - 0.00 in0.0 mm 0.00 in0.0 mm
07:20 AM 31.3°F-0.4°C 28.1°F-2.2°C 88% 2.3 mph E3.7 kmh E 3.5 mph5.6 kmh 30.16 in1021.3 mb - 0.00 in0.0 mm 0.00 in0.0 mm
07:15 AM 31.3°F-0.4°C 28.1°F-2.2°C 88% 3.5 mph NNE5.6 kmh NNE 3.5 mph5.6 kmh 30.16 in1021.3 mb - 0.00 in0.0 mm 0.00 in0.0 mm
07:10 AM 31.1°F-0.5°C 28.0°F-2.2°C 88% 2.3 mph E3.7 kmh E 3.5 mph5.6 kmh 30.16 in1021.3 mb - 0.00 in0.0 mm 0.00 in0.0 mm
07:00 AM 31.1°F-0.5°C 28.0°F-2.2°C 88% 2.3 mph NNE3.7 kmh NNE 4.6 mph7.4 kmh 30.17 in1021.7 mb - 0.00 in0.0 mm 0.00 in0.0 mm
06:55 AM 31.1°F-0.5°C 28.0°F-2.2°C 88% 2.3 mph ESE3.7 kmh ESE 2.3 mph3.7 kmh 30.18 in1022.0 mb - 0.00 in0.0 mm 0.00 in0.0 mm
06:50 AM 31.1°F-0.5°C 28.0°F-2.2°C 88% 3.5 mph NE5.6 kmh NE 3.5 mph5.6 kmh 30.19 in1022.4 mb - 0.00 in0.0 mm 0.00 in0.0 mm
06:45 AM 31.1°F-0.5°C 28.0°F-2.2°C 88% 2.3 mph ENE3.7 kmh ENE 3.5 mph5.6 kmh 30.21 in1023.0 mb - 0.00 in0.0 mm 0.00 in0.0 mm
06:40 AM 31.1°F-0.5°C 28.0°F-2.2°C 88% 2.3 mph ENE3.7 kmh ENE 3.5 mph5.6 kmh 30.21 in1023.0 mb - 0.00 in0.0 mm 0.00 in0.0 mm
06:35 AM 31.1°F-0.5°C 28.0°F-2.2°C 88% 2.3 mph E3.7 kmh E 2.3 mph3.7 kmh 30.21 in1023.0 mb - 0.00 in0.0 mm 0.00 in0.0 mm
06:30 AM 31.1°F-0.5°C 28.0°F-2.2°C 88% 2.3 mph SE3.7 kmh SE 3.5 mph5.6 kmh 30.21 in1023.0 mb - 0.00 in0.0 mm 0.00 in0.0 mm
06:25 AM 31.1°F-0.5°C 28.0°F-2.2°C 88% 3.5 mph NE5.6 kmh NE 3.5 mph5.6 kmh 30.20 in1022.7 mb - 0.00 in0.0 mm 0.00 in0.0 mm
06:20 AM 31.1°F-0.5°C 28.0°F-2.2°C 88% 2.3 mph NNE3.7 kmh NNE 3.5 mph5.6 kmh 30.21 in1023.0 mb - 0.00 in0.0 mm 0.00 in0.0 mm
06:15 AM 31.1°F-0.5°C 28.0°F-2.2°C 88% 2.3 mph ENE3.7 kmh ENE 3.5 mph5.6 kmh 30.21 in1023.0 mb - 0.00 in0.0 mm 0.00 in0.0 mm
06:10 AM 31.0°F-0.6°C 28.1°F-2.2°C 89% 3.5 mph NE5.6 kmh NE 4.6 mph7.4 kmh 30.21 in1023.0 mb - 0.00 in0.0 mm 0.00 in0.0 mm
06:00 AM 30.6°F-0.8°C 28.2°F-2.1°C 91% 2.3 mph E3.7 kmh E 3.5 mph5.6 kmh 30.21 in1023.0 mb - 0.00 in0.0 mm 0.00 in0.0 mm
05:55 AM 30.6°F-0.8°C 28.2°F-2.1°C 91% 1.2 mph NNE1.9 kmh NNE 2.3 mph3.7 kmh 30.21 in1023.0 mb - 0.00 in0.0 mm 0.00 in0.0 mm
05:50 AM 30.6°F-0.8°C 28.2°F-2.1°C 91% 2.3 mph ESE3.7 kmh ESE 2.3 mph3.7 kmh 30.22 in1023.4 mb - 0.00 in0.0 mm 0.00 in0.0 mm
05:45 AM 30.4°F-0.9°C 28.1°F-2.2°C 91% 2.3 mph NE3.7 kmh NE 3.5 mph5.6 kmh 30.21 in1023.0 mb - 0.00 in0.0 mm 0.00 in0.0 mm
05:40 AM 30.0°F-1.1°C 27.7°F-2.4°C 91% 3.5 mph NE5.6 kmh NE 4.6 mph7.4 kmh 30.21 in1023.0 mb - 0.00 in0.0 mm 0.00 in0.0 mm
05:35 AM 30.0°F-1.1°C 27.7°F-2.4°C 91% 3.5 mph E5.6 kmh E 3.5 mph5.6 kmh 30.21 in1023.0 mb - 0.00 in0.0 mm 0.00 in0.0 mm
05:30 AM 29.8°F-1.2°C 27.5°F-2.5°C 91% 3.5 mph ENE5.6 kmh ENE 3.5 mph5.6 kmh 30.21 in1023.0 mb - 0.00 in0.0 mm 0.00 in0.0 mm
05:25 AM 29.5°F-1.4°C 27.2°F-2.7°C 91% 3.5 mph ENE5.6 kmh ENE 3.5 mph5.6 kmh 30.21 in1023.0 mb - 0.00 in0.0 mm 0.00 in0.0 mm
05:20 AM 29.5°F-1.4°C 27.2°F-2.7°C 91% 3.5 mph ENE5.6 kmh ENE 4.6 mph7.4 kmh 30.21 in1023.0 mb - 0.00 in0.0 mm 0.00 in0.0 mm
05:15 AM 29.1°F-1.6°C 26.8°F-2.9°C 91% 3.5 mph E5.6 kmh E 4.6 mph7.4 kmh 30.21 in1023.0 mb - 0.00 in0.0 mm 0.00 in0.0 mm
05:10 AM 28.8°F-1.8°C 26.5°F-3.1°C 91% 2.3 mph E3.7 kmh E 2.3 mph3.7 kmh 30.23 in1023.7 mb - 0.00 in0.0 mm 0.00 in0.0 mm
05:00 AM 28.6°F-1.9°C 26.3°F-3.2°C 91% 2.3 mph NNE3.7 kmh NNE 3.5 mph5.6 kmh 30.23 in1023.7 mb - 0.00 in0.0 mm 0.00 in0.0 mm
04:55 AM 28.2°F-2.1°C 25.9°F-3.4°C 91% 2.3 mph NE3.7 kmh NE 2.3 mph3.7 kmh 30.23 in1023.7 mb - 0.00 in0.0 mm 0.00 in0.0 mm
04:50 AM 28.2°F-2.1°C 25.9°F-3.4°C 91% 2.3 mph NE3.7 kmh NE 3.5 mph5.6 kmh 30.24 in1024.0 mb - 0.00 in0.0 mm 0.00 in0.0 mm
04:45 AM 28.2°F-2.1°C 25.9°F-3.4°C 91% 2.3 mph ENE3.7 kmh ENE 2.3 mph3.7 kmh 30.25 in1024.4 mb - 0.00 in0.0 mm 0.00 in0.0 mm
04:40 AM 27.9°F-2.3°C 25.6°F-3.6°C 91% 1.2 mph ENE1.9 kmh ENE 2.3 mph3.7 kmh 30.25 in1024.4 mb - 0.00 in0.0 mm 0.00 in0.0 mm
04:35 AM 27.9°F-2.3°C 25.6°F-3.6°C 91% 1.2 mph E1.9 kmh E 3.5 mph5.6 kmh 30.25 in1024.4 mb - 0.00 in0.0 mm 0.00 in0.0 mm
04:30 AM 27.9°F-2.3°C 25.6°F-3.6°C 91% 2.3 mph NNE3.7 kmh NNE 2.3 mph3.7 kmh 30.25 in1024.4 mb - 0.00 in0.0 mm 0.00 in0.0 mm
04:25 AM 27.9°F-2.3°C 25.6°F-3.6°C 91% 1.2 mph ENE1.9 kmh ENE 3.5 mph5.6 kmh 30.26 in1024.7 mb - 0.00 in0.0 mm 0.00 in0.0 mm
04:20 AM 27.9°F-2.3°C 25.6°F-3.6°C 91% 1.2 mph NE1.9 kmh NE 1.2 mph1.9 kmh 30.27 in1025.1 mb - 0.00 in0.0 mm 0.00 in0.0 mm
04:15 AM 27.9°F-2.3°C 25.6°F-3.6°C 91% 1.2 mph NE1.9 kmh NE 3.5 mph5.6 kmh 30.27 in1025.1 mb - 0.00 in0.0 mm 0.00 in0.0 mm
04:10 AM 27.9°F-2.3°C 25.6°F-3.6°C 91% Calm Calm -- 30.27 in1025.1 mb - 0.00 in0.0 mm 0.00 in0.0 mm
04:00 AM 27.7°F-2.4°C 25.4°F-3.7°C 91% 1.2 mph E1.9 kmh E -- 30.27 in1025.1 mb - 0.00 in0.0 mm 0.00 in0.0 mm
03:55 AM 27.7°F-2.4°C 25.4°F-3.7°C 91% 2.3 mph E3.7 kmh E 2.3 mph3.7 kmh 30.26 in1024.7 mb - 0.00 in0.0 mm 0.00 in0.0 mm
03:50 AM 27.7°F-2.4°C 25.4°F-3.7°C 91% 1.2 mph E1.9 kmh E -- 30.26 in1024.7 mb - 0.00 in0.0 mm 0.00 in0.0 mm
03:45 AM 27.5°F-2.5°C 25.2°F-3.8°C 91% 2.3 mph E3.7 kmh E 2.3 mph3.7 kmh 30.27 in1025.1 mb - 0.00 in0.0 mm 0.00 in0.0 mm
03:40 AM 27.5°F-2.5°C 25.2°F-3.8°C 91% 2.3 mph ENE3.7 kmh ENE 2.3 mph3.7 kmh 30.27 in1025.1 mb - 0.00 in0.0 mm 0.00 in0.0 mm
03:35 AM 27.5°F-2.5°C 25.0°F-3.9°C 90% 2.3 mph ENE3.7 kmh ENE 2.3 mph3.7 kmh 30.27 in1025.1 mb - 0.00 in0.0 mm 0.00 in0.0 mm
03:30 AM 27.5°F-2.5°C 25.0°F-3.9°C 90% 2.3 mph ENE3.7 kmh ENE 2.3 mph3.7 kmh 30.26 in1024.7 mb - 0.00 in0.0 mm 0.00 in0.0 mm
03:25 AM 27.5°F-2.5°C 25.0°F-3.9°C 90% 3.5 mph NNE5.6 kmh NNE 3.5 mph5.6 kmh 30.27 in1025.1 mb - 0.00 in0.0 mm 0.00 in0.0 mm
03:20 AM 27.5°F-2.5°C 25.0°F-3.9°C 90% 3.5 mph NNE5.6 kmh NNE 3.5 mph5.6 kmh 30.27 in1025.1 mb - 0.00 in0.0 mm 0.00 in0.0 mm
03:15 AM 27.5°F-2.5°C 25.0°F-3.9°C 90% 2.3 mph NNE3.7 kmh NNE 3.5 mph5.6 kmh 30.26 in1024.7 mb - 0.00 in0.0 mm 0.00 in0.0 mm
03:10 AM 27.5°F-2.5°C 25.0°F-3.9°C 90% 2.3 mph NE3.7 kmh NE 3.5 mph5.6 kmh 30.27 in1025.1 mb - 0.00 in0.0 mm 0.00 in0.0 mm
03:00 AM 27.5°F-2.5°C 25.0°F-3.9°C 90% 2.3 mph NNE3.7 kmh NNE 3.5 mph5.6 kmh 30.28 in1025.4 mb - 0.00 in0.0 mm 0.00 in0.0 mm
02:55 AM 27.5°F-2.5°C 25.0°F-3.9°C 90% 3.5 mph NE5.6 kmh NE 3.5 mph5.6 kmh 30.29 in1025.7 mb - 0.00 in0.0 mm 0.00 in0.0 mm
02:50 AM 27.3°F-2.6°C 24.8°F-4.0°C 90% 3.5 mph NNE5.6 kmh NNE 4.6 mph7.4 kmh 30.30 in1026.1 mb - 0.00 in0.0 mm 0.00 in0.0 mm
02:45 AM 27.3°F-2.6°C 24.8°F-4.0°C 90% 2.3 mph N3.7 kmh N 3.5 mph5.6 kmh 30.29 in1025.7 mb - 0.00 in0.0 mm 0.00 in0.0 mm
02:40 AM 27.3°F-2.6°C 24.8°F-4.0°C 90% 2.3 mph ENE3.7 kmh ENE 3.5 mph5.6 kmh 30.30 in1026.1 mb - 0.00 in0.0 mm 0.00 in0.0 mm
02:35 AM 27.1°F-2.7°C 24.3°F-4.3°C 89% 3.5 mph N5.6 kmh N 3.5 mph5.6 kmh 30.29 in1025.7 mb - 0.00 in0.0 mm 0.00 in0.0 mm
02:30 AM 27.1°F-2.7°C 24.1°F-4.4°C 88% 2.3 mph N3.7 kmh N 3.5 mph5.6 kmh 30.29 in1025.7 mb - 0.00 in0.0 mm 0.00 in0.0 mm
02:25 AM 27.1°F-2.7°C 24.1°F-4.4°C 88% 3.5 mph NNE5.6 kmh NNE 3.5 mph5.6 kmh 30.29 in1025.7 mb - 0.00 in0.0 mm 0.00 in0.0 mm
02:20 AM 27.1°F-2.7°C 24.1°F-4.4°C 88% 3.5 mph NNE5.6 kmh NNE 3.5 mph5.6 kmh 30.29 in1025.7 mb - 0.00 in0.0 mm 0.00 in0.0 mm
02:15 AM 27.1°F-2.7°C 24.1°F-4.4°C 88% 2.3 mph NNE3.7 kmh NNE 4.6 mph7.4 kmh 30.29 in1025.7 mb - 0.00 in0.0 mm 0.00 in0.0 mm
02:10 AM 27.1°F-2.7°C 24.1°F-4.4°C 88% 2.3 mph NE3.7 kmh NE 3.5 mph5.6 kmh 30.30 in1026.1 mb - 0.00 in0.0 mm 0.00 in0.0 mm
02:00 AM 27.1°F-2.7°C 24.6°F-4.1°C 90% 2.3 mph NE3.7 kmh NE 3.5 mph5.6 kmh 30.30 in1026.1 mb - 0.00 in0.0 mm 0.00 in0.0 mm
01:55 AM 27.0°F-2.8°C 24.4°F-4.2°C 90% 1.2 mph NE1.9 kmh NE 2.3 mph3.7 kmh 30.31 in1026.4 mb - 0.00 in0.0 mm 0.00 in0.0 mm
01:50 AM 27.0°F-2.8°C 24.4°F-4.2°C 90% 1.2 mph NE1.9 kmh NE 2.3 mph3.7 kmh 30.31 in1026.4 mb - 0.00 in0.0 mm 0.00 in0.0 mm
01:45 AM 26.8°F-2.9°C 24.2°F-4.3°C 90% 1.2 mph NE1.9 kmh NE 1.2 mph1.9 kmh 30.31 in1026.4 mb - 0.00 in0.0 mm 0.00 in0.0 mm
01:40 AM 26.8°F-2.9°C 24.2°F-4.3°C 90% 2.3 mph NE3.7 kmh NE 1.2 mph1.9 kmh 30.31 in1026.4 mb - 0.00 in0.0 mm 0.00 in0.0 mm
01:35 AM 26.8°F-2.9°C 24.2°F-4.3°C 90% 1.2 mph NNE1.9 kmh NNE 2.3 mph3.7 kmh 30.32 in1026.8 mb - 0.00 in0.0 mm 0.00 in0.0 mm
01:30 AM 26.6°F-3.0°C 24.1°F-4.4°C 90% 3.5 mph NNE5.6 kmh NNE 2.3 mph3.7 kmh 30.30 in1026.1 mb - 0.00 in0.0 mm 0.00 in0.0 mm
01:25 AM 26.2°F-3.2°C 23.7°F-4.6°C 90% 3.5 mph NNE5.6 kmh NNE 3.5 mph5.6 kmh 30.31 in1026.4 mb - 0.00 in0.0 mm 0.00 in0.0 mm
01:20 AM 26.2°F-3.2°C 23.7°F-4.6°C 90% 2.3 mph NE3.7 kmh NE 2.3 mph3.7 kmh 30.31 in1026.4 mb - 0.00 in0.0 mm 0.00 in0.0 mm
01:15 AM 26.2°F-3.2°C 23.7°F-4.6°C 90% 1.2 mph NE1.9 kmh NE 2.3 mph3.7 kmh 30.32 in1026.8 mb - 0.00 in0.0 mm 0.00 in0.0 mm
01:10 AM 26.1°F-3.3°C 23.5°F-4.7°C 90% 2.3 mph NNE3.7 kmh NNE 2.3 mph3.7 kmh 30.30 in1026.1 mb - 0.00 in0.0 mm 0.00 in0.0 mm
01:00 AM 26.1°F-3.3°C 23.5°F-4.7°C 90% 2.3 mph ENE3.7 kmh ENE 2.3 mph3.7 kmh 30.30 in1026.1 mb - 0.00 in0.0 mm 0.00 in0.0 mm
12:55 AM 26.1°F-3.3°C 23.5°F-4.7°C 90% 2.3 mph NE3.7 kmh NE 3.5 mph5.6 kmh 30.30 in1026.1 mb - 0.00 in0.0 mm 0.00 in0.0 mm
12:50 AM 25.9°F-3.4°C 23.4°F-4.8°C 90% 2.3 mph NE3.7 kmh NE 2.3 mph3.7 kmh 30.30 in1026.1 mb - 0.00 in0.0 mm 0.00 in0.0 mm
12:45 AM 25.9°F-3.4°C 23.4°F-4.8°C 90% 3.5 mph NE5.6 kmh NE 3.5 mph5.6 kmh 30.31 in1026.4 mb - 0.00 in0.0 mm 0.00 in0.0 mm
12:40 AM 25.3°F-3.7°C 22.8°F-5.1°C 90% 2.3 mph ESE3.7 kmh ESE 3.5 mph5.6 kmh 30.32 in1026.8 mb - 0.00 in0.0 mm 0.00 in0.0 mm
12:35 AM 25.3°F-3.7°C 22.8°F-5.1°C 90% 2.3 mph ESE3.7 kmh ESE 2.3 mph3.7 kmh 30.32 in1026.8 mb - 0.00 in0.0 mm 0.00 in0.0 mm
12:30 AM 25.3°F-3.7°C 22.8°F-5.1°C 90% 1.2 mph ESE1.9 kmh ESE 2.3 mph3.7 kmh 30.32 in1026.8 mb - 0.00 in0.0 mm 0.00 in0.0 mm
12:25 AM 25.2°F-3.8°C 22.1°F-5.5°C 88% 1.2 mph ESE1.9 kmh ESE 2.3 mph3.7 kmh 30.31 in1026.4 mb - 0.00 in0.0 mm 0.00 in0.0 mm
12:20 AM 25.2°F-3.8°C 22.1°F-5.5°C 88% 1.2 mph ESE1.9 kmh ESE 1.2 mph1.9 kmh 30.31 in1026.4 mb - 0.00 in0.0 mm 0.00 in0.0 mm
12:15 AM 25.2°F-3.8°C 22.1°F-5.5°C 88% 2.3 mph ESE3.7 kmh ESE 2.3 mph3.7 kmh 30.32 in1026.8 mb - 0.00 in0.0 mm 0.00 in0.0 mm
12:10 AM 25.2°F-3.8°C 22.1°F-5.5°C 88% 2.3 mph ESE3.7 kmh ESE 2.3 mph3.7 kmh 30.32 in1026.8 mb - 0.00 in0.0 mm 0.00 in0.0 mm
12:00 AM 25.2°F-3.8°C 22.1°F-5.5°C 88% 2.3 mph ESE3.7 kmh ESE 2.3 mph3.7 kmh 30.32 in1026.8 mb - 0.00 in0.0 mm 0.00 in0.0 mm